createdAt,value
2022-08-16T05:33:28.621Z,19.20
2022-08-16T05:36:33.951Z,19.80
2022-08-16T05:39:40.934Z,19.90
2022-08-16T05:42:49.188Z,20.00
2022-08-16T05:45:52.167Z,20.10
2022-08-16T05:48:55.237Z,20.40
2022-08-16T05:52:02.211Z,20.50
2022-08-16T05:55:05.554Z,20.90
2022-08-16T05:58:07.317Z,21.60
2022-08-16T06:01:11.049Z,22.10
2022-08-16T06:04:36.493Z,22.20
2022-08-16T06:07:36.418Z,22.40
2022-08-16T06:10:40.136Z,22.40
2022-08-16T06:50:05.346Z,28.00
2022-08-16T06:53:09.021Z,28.70
2022-08-16T06:56:14.879Z,28.80
2022-08-16T06:59:25.681Z,31.10
2022-08-16T07:02:33.480Z,31.90
2022-08-16T07:05:41.857Z,32.20
2022-08-16T07:08:46.464Z,32.00
2022-08-16T07:11:51.883Z,32.50
2022-08-16T07:14:57.320Z,32.60
2022-08-16T07:18:03.218Z,32.60
2022-08-16T07:21:06.269Z,33.30
2022-08-16T07:24:10.009Z,32.30
2022-08-16T07:27:33.859Z,32.40
2022-08-16T07:30:46.613Z,31.80
2022-08-16T07:33:53.648Z,30.90
2022-08-16T07:36:58.865Z,30.90
2022-08-16T07:40:01.742Z,31.20
2022-08-16T07:43:12.991Z,29.40
2022-08-16T07:46:39.127Z,28.50
2022-08-16T07:49:37.043Z,29.40
2022-08-16T07:52:54.722Z,30.90
2022-08-16T07:55:58.136Z,32.30
2022-08-16T07:59:01.298Z,31.30
2022-08-16T08:02:04.209Z,30.70
2022-08-16T08:05:14.419Z,32.30
2022-08-16T08:08:50.260Z,33.30
2022-08-16T08:11:38.505Z,34.50
2022-08-16T08:14:40.405Z,33.90
2022-08-16T08:17:43.967Z,32.60
2022-08-16T08:20:45.884Z,31.50
2022-08-16T08:24:01.366Z,29.40
2022-08-16T08:27:04.604Z,30.30
2022-08-16T08:30:49.086Z,31.50
2022-08-16T08:33:29.177Z,32.40
2022-08-16T08:36:34.239Z,34.30
2022-08-16T08:39:54.816Z,34.20
2022-08-16T08:43:11.383Z,32.40
2022-08-16T08:46:21.161Z,30.70
2022-08-16T08:49:23.678Z,30.40
2022-08-16T08:52:47.987Z,30.40
2022-08-16T08:55:58.807Z,28.70
2022-08-16T08:59:04.704Z,28.20
2022-08-16T09:02:16.613Z,28.00
2022-08-16T09:05:23.027Z,27.30
2022-08-16T09:08:37.386Z,27.50
2022-08-16T09:11:40.983Z,28.90
2022-08-16T09:14:50.840Z,30.30
2022-08-16T09:17:55.625Z,30.50
2022-08-16T09:21:01.785Z,29.20
2022-08-16T09:24:04.675Z,28.50
2022-08-16T09:27:11.907Z,28.20
2022-08-16T09:30:33.605Z,27.80
2022-08-16T09:33:37.009Z,27.70
2022-08-16T09:36:46.133Z,29.70
2022-08-16T09:39:50.486Z,31.50
2022-08-16T09:43:05.282Z,33.30
2022-08-16T09:46:44.496Z,33.60
2022-08-16T09:49:36.888Z,34.00
2022-08-16T09:52:42.751Z,35.20
2022-08-16T09:55:56.836Z,35.40
2022-08-16T09:59:04.877Z,35.60
2022-08-16T10:02:27.101Z,36.30
2022-08-16T10:05:29.592Z,36.40
2022-08-16T10:08:38.554Z,35.80
2022-08-16T10:12:19.685Z,35.70
2022-08-16T10:15:21.820Z,36.80
2022-08-16T10:18:56.242Z,36.90
2022-08-16T10:21:46.497Z,35.40
2022-08-16T10:25:00.060Z,35.70
2022-08-16T10:28:27.579Z,36.10
2022-08-16T10:31:45.404Z,34.60
2022-08-16T10:34:45.611Z,34.60
2022-08-16T10:37:53.448Z,33.20
2022-08-16T10:40:55.220Z,32.00
2022-08-16T10:43:58.259Z,30.80
2022-08-16T10:46:59.960Z,30.20
2022-08-16T10:50:06.717Z,30.10
2022-08-16T10:53:21.694Z,30.60
2022-08-16T10:56:51.866Z,30.20
2022-08-16T10:59:53.063Z,29.30
2022-08-16T11:03:04.881Z,28.60
2022-08-16T11:06:12.038Z,28.20
2022-08-16T11:09:25.486Z,28.40
2022-08-16T11:12:30.498Z,28.30
2022-08-16T11:15:34.990Z,28.00
2022-08-16T11:18:48.774Z,28.80
2022-08-16T11:22:39.692Z,30.50
2022-08-16T11:32:20.363Z,32.60
2022-08-16T11:38:57.075Z,33.60
2022-08-16T11:41:59.601Z,33.50
2022-08-16T11:45:01.610Z,33.00
2022-08-16T11:48:04.963Z,31.60
2022-08-16T11:51:06.786Z,29.90
2022-08-16T11:54:21.300Z,29.80
2022-08-16T11:57:24.197Z,30.30
2022-08-16T12:00:33.977Z,30.50
2022-08-16T12:03:48.710Z,30.20
2022-08-16T12:06:53.556Z,29.90
2022-08-16T12:09:56.420Z,29.70
2022-08-16T12:12:58.300Z,28.90
2022-08-16T12:16:07.350Z,29.30
2022-08-16T12:19:13.818Z,29.40
2022-08-16T12:22:19.273Z,29.00
2022-08-16T12:25:24.424Z,28.50
2022-08-16T12:28:53.935Z,28.10
2022-08-16T12:31:59.329Z,28.90
2022-08-16T12:35:04.566Z,29.30
2022-08-16T12:38:23.088Z,29.10
2022-08-16T12:41:34.925Z,29.30
2022-08-16T12:44:37.855Z,29.10
2022-08-16T12:48:31.695Z,29.50
2022-08-16T12:51:32.954Z,29.90
2022-08-16T12:54:55.045Z,29.90
2022-08-16T12:58:00.300Z,29.70
2022-08-16T13:01:02.479Z,29.40
2022-08-16T13:04:21.101Z,29.60
2022-08-16T13:07:27.171Z,29.20
2022-08-16T13:10:37.729Z,28.80
2022-08-16T13:13:40.860Z,28.50
2022-08-16T13:16:43.194Z,28.70
2022-08-16T13:20:07.824Z,28.90
2022-08-16T13:23:11.604Z,29.10
2022-08-16T13:26:18.131Z,29.10
2022-08-16T13:29:19.994Z,28.70
2022-08-16T13:32:39.575Z,28.70
2022-08-16T13:35:44.589Z,28.60
2022-08-16T13:38:46.942Z,29.00
2022-08-16T13:41:53.829Z,29.10
2022-08-16T13:44:58.535Z,28.90
2022-08-16T13:48:02.381Z,29.00
2022-08-16T13:51:07.433Z,28.70
2022-08-16T13:54:09.425Z,28.60
2022-08-16T13:57:11.963Z,28.80
2022-08-16T14:00:15.847Z,28.80
2022-08-16T14:03:21.801Z,28.80
2022-08-16T14:06:26.580Z,28.80
2022-08-16T14:09:31.944Z,28.40
2022-08-16T14:12:37.288Z,28.50
2022-08-16T14:15:41.333Z,28.50
2022-08-16T14:18:44.138Z,28.10
2022-08-16T14:21:56.549Z,27.90
2022-08-16T14:25:16.516Z,27.80
2022-08-16T14:28:20.528Z,28.00
2022-08-16T14:31:27.747Z,28.20
2022-08-16T14:34:29.808Z,28.30
2022-08-16T14:37:32.795Z,28.40
2022-08-16T14:40:35.712Z,28.50
2022-08-16T14:43:37.604Z,28.40
2022-08-16T14:46:41.939Z,28.40
2022-08-16T14:49:44.023Z,28.20
2022-08-16T14:52:56.382Z,28.20
2022-08-16T14:55:58.981Z,27.90
2022-08-16T14:59:01.033Z,28.00
2022-08-16T15:02:07.796Z,28.10
2022-08-16T15:05:12.734Z,28.40
2022-08-16T15:08:17.822Z,28.60
2022-08-16T15:11:23.661Z,28.60
2022-08-16T15:14:25.479Z,28.40
2022-08-16T15:17:33.907Z,28.30
2022-08-16T15:20:41.171Z,28.40
2022-08-16T15:23:42.995Z,28.50
2022-08-16T15:26:46.946Z,28.70
2022-08-16T15:29:49.051Z,28.50
2022-08-16T15:33:03.759Z,28.50
2022-08-16T15:36:06.398Z,28.40
2022-08-16T15:39:29.780Z,28.30
2022-08-16T15:42:31.345Z,28.30
2022-08-16T15:45:55.639Z,28.40
2022-08-16T15:48:57.785Z,28.40
2022-08-16T15:52:01.206Z,28.20
2022-08-16T15:55:23.779Z,28.00
2022-08-16T15:58:34.527Z,28.00
